createdAt,value
2023-05-22T00:00:11.590Z,97.62
2023-05-22T00:02:42.994Z,97.52
2023-05-22T00:05:11.823Z,97.56
2023-05-22T00:07:40.318Z,97.81
2023-05-22T00:10:08.642Z,97.80
2023-05-22T00:12:37.717Z,97.75
2023-05-22T00:15:06.165Z,97.80
2023-05-22T00:17:34.040Z,97.98
2023-05-22T00:20:07.849Z,98.02
2023-05-22T00:22:36.245Z,98.30
2023-05-22T00:25:04.795Z,98.05
2023-05-22T00:27:32.631Z,97.97
2023-05-22T00:30:02.008Z,98.04
2023-05-22T00:32:29.728Z,97.85
2023-05-22T00:34:57.501Z,97.66
2023-05-22T00:37:25.475Z,97.80
2023-05-22T00:39:53.090Z,97.63
2023-05-22T00:42:20.895Z,97.39
2023-05-22T00:44:49.269Z,97.84
2023-05-22T00:47:18.382Z,97.81
2023-05-22T00:49:47.085Z,97.60
2023-05-22T00:52:15.769Z,97.48
2023-05-22T00:54:44.174Z,97.84
2023-05-22T00:57:12.508Z,98.07
2023-05-22T00:59:40.423Z,98.06
2023-05-22T01:02:09.593Z,97.92
2023-05-22T01:04:38.698Z,98.07
2023-05-22T01:07:06.931Z,98.01
2023-05-22T01:09:34.575Z,97.81
2023-05-22T01:12:11.971Z,98.08
2023-05-22T01:14:48.274Z,97.72
2023-05-22T01:17:23.363Z,97.45
2023-05-22T01:20:07.385Z,97.64
2023-05-22T01:23:21.702Z,97.75
2023-05-22T01:26:11.214Z,97.79
2023-05-22T01:28:52.981Z,97.79
2023-05-22T01:31:26.649Z,97.98
2023-05-22T01:33:57.395Z,97.93
2023-05-22T01:36:29.691Z,98.03
2023-05-22T01:38:58.852Z,98.52
2023-05-22T01:41:27.066Z,98.46
2023-05-22T01:43:54.894Z,98.00
2023-05-22T01:46:26.516Z,97.54
2023-05-22T01:48:54.572Z,97.54
2023-05-22T01:51:29.962Z,97.54
2023-05-22T01:54:05.942Z,97.90
2023-05-22T01:56:43.316Z,97.93
2023-05-22T01:59:20.351Z,98.10
2023-05-22T02:01:52.836Z,97.89
2023-05-22T02:08:28.486Z,97.88
2023-05-22T02:10:57.778Z,97.96
2023-05-22T02:13:25.623Z,97.99
2023-05-22T02:15:53.611Z,98.48
2023-05-22T02:18:29.396Z,98.52
2023-05-22T02:20:57.075Z,98.51
2023-05-22T02:23:25.415Z,98.58
2023-05-22T02:25:53.208Z,98.67
2023-05-22T02:28:20.966Z,98.84
2023-05-22T02:30:48.726Z,98.98
2023-05-22T02:33:18.005Z,98.87
2023-05-22T02:35:47.006Z,98.76
2023-05-22T02:38:14.647Z,98.92
2023-05-22T02:40:42.386Z,98.69
2023-05-22T02:43:10.214Z,98.78
2023-05-22T02:45:37.831Z,98.82
2023-05-22T02:48:06.143Z,98.66
2023-05-22T02:50:33.940Z,98.91
2023-05-22T02:53:02.908Z,99.05
2023-05-22T02:55:30.614Z,99.03
2023-05-22T02:57:58.196Z,99.04
2023-05-22T03:00:26.072Z,98.99
2023-05-22T03:02:55.585Z,99.38
2023-05-22T03:05:23.190Z,99.28
2023-05-22T03:07:52.890Z,98.61
2023-05-22T03:10:21.866Z,98.07
2023-05-22T03:12:51.660Z,98.13
2023-05-22T03:15:19.339Z,97.99
2023-05-22T03:17:47.774Z,97.60
2023-05-22T03:20:17.267Z,98.24
2023-05-22T03:22:46.009Z,97.90
2023-05-22T03:25:14.120Z,98.01
2023-05-22T03:27:43.264Z,97.68
2023-05-22T03:30:12.019Z,98.04
2023-05-22T03:32:42.675Z,97.59
2023-05-22T03:35:10.854Z,97.80
2023-05-22T03:37:38.752Z,97.62
2023-05-22T03:40:07.886Z,97.68
2023-05-22T03:42:35.920Z,97.32
2023-05-22T03:45:05.552Z,97.21
2023-05-22T03:47:33.437Z,97.17
2023-05-22T03:50:01.103Z,97.04
2023-05-22T03:52:29.087Z,97.39
2023-05-22T03:54:56.815Z,97.25
2023-05-22T03:57:24.433Z,97.23
2023-05-22T03:59:52.120Z,97.22
2023-05-22T04:02:21.796Z,97.10
2023-05-22T04:04:49.451Z,97.01
2023-05-22T04:07:18.703Z,97.22
2023-05-22T04:09:46.279Z,97.15
2023-05-22T04:12:14.151Z,96.90
2023-05-22T04:14:43.550Z,97.28
2023-05-22T04:17:11.627Z,97.34
2023-05-22T04:19:40.588Z,97.50
2023-05-22T04:22:08.200Z,97.11
2023-05-22T04:24:35.947Z,96.73
2023-05-22T04:27:03.560Z,96.48
2023-05-22T04:29:31.159Z,96.74
2023-05-22T04:32:00.181Z,96.51
2023-05-22T04:34:30.086Z,96.88
2023-05-22T04:37:00.015Z,95.74
2023-05-22T04:39:27.633Z,95.93
2023-05-22T04:41:55.225Z,95.75
2023-05-22T04:44:22.936Z,95.87
2023-05-22T04:46:52.329Z,95.78
2023-05-22T04:49:20.447Z,95.72
2023-05-22T04:51:48.002Z,95.86
2023-05-22T04:54:16.945Z,95.85
2023-05-22T04:56:44.512Z,96.05
2023-05-22T04:59:16.140Z,95.72
2023-05-22T05:01:45.255Z,95.42
2023-05-22T05:04:13.017Z,95.20
2023-05-22T05:06:40.633Z,94.97
2023-05-22T05:09:08.303Z,95.19
2023-05-22T05:11:38.655Z,95.03
2023-05-22T05:14:06.338Z,95.37
2023-05-22T05:16:33.976Z,95.35
2023-05-22T05:19:01.627Z,95.34
2023-05-22T05:21:30.126Z,95.38
2023-05-22T05:24:01.326Z,95.58
2023-05-22T05:26:29.161Z,95.28
2023-05-22T05:28:58.086Z,95.60
2023-05-22T05:31:32.893Z,95.33
2023-05-22T05:34:33.031Z,95.38
2023-05-22T05:37:04.052Z,95.15
2023-05-22T05:39:32.702Z,95.24
2023-05-22T05:42:02.827Z,94.90
2023-05-22T05:44:32.301Z,94.97
2023-05-22T05:47:01.045Z,95.05
2023-05-22T05:49:29.211Z,94.78
2023-05-22T05:51:56.776Z,94.34
2023-05-22T05:54:27.078Z,93.64
2023-05-22T05:56:58.558Z,93.13
2023-05-22T05:59:26.253Z,93.08
2023-05-22T06:02:21.154Z,92.66
2023-05-22T06:04:51.594Z,91.91
2023-05-22T06:07:19.826Z,91.76
2023-05-22T06:09:50.459Z,91.32
2023-05-22T06:12:41.190Z,90.83
2023-05-22T06:15:09.891Z,90.48
2023-05-22T06:17:39.131Z,89.67
2023-05-22T06:20:09.264Z,89.19
2023-05-22T06:22:37.411Z,88.92
2023-05-22T06:25:06.097Z,88.05
2023-05-22T06:27:34.943Z,87.62
2023-05-22T06:30:04.640Z,86.84
2023-05-22T06:32:36.520Z,85.83
2023-05-22T06:35:06.603Z,84.55
2023-05-22T06:37:35.617Z,84.39
2023-05-22T06:40:03.734Z,84.25
2023-05-22T06:42:52.082Z,83.85
2023-05-22T06:45:42.855Z,83.63
2023-05-22T06:48:34.937Z,83.11
2023-05-22T06:51:27.142Z,82.93
2023-05-22T06:54:08.323Z,82.87
2023-05-22T06:56:37.988Z,82.56
2023-05-22T06:59:08.566Z,82.46
2023-05-22T07:01:54.824Z,82.42
2023-05-22T07:04:32.814Z,81.30
2023-05-22T07:07:03.957Z,81.75
2023-05-22T07:09:31.621Z,81.25
2023-05-22T07:11:59.323Z,79.15
2023-05-22T07:14:26.970Z,77.86
2023-05-22T07:16:54.633Z,77.65
2023-05-22T07:19:27.710Z,77.70
2023-05-22T07:21:59.931Z,77.66
2023-05-22T07:24:29.477Z,77.08
2023-05-22T07:26:57.124Z,76.84
2023-05-22T07:29:24.781Z,75.45
2023-05-22T07:31:54.690Z,75.96
2023-05-22T07:34:31.668Z,74.46
2023-05-22T07:36:59.659Z,74.31
2023-05-22T07:39:28.751Z,73.00
2023-05-22T07:41:57.894Z,73.25
2023-05-22T07:44:27.662Z,72.73
2023-05-22T07:46:56.947Z,71.39
2023-05-22T07:49:26.555Z,70.82
2023-05-22T07:51:54.311Z,70.67
2023-05-22T07:54:24.902Z,70.71
2023-05-22T07:56:55.957Z,70.01
2023-05-22T07:59:25.325Z,70.16
2023-05-22T08:01:58.033Z,69.90
2023-05-22T08:04:26.320Z,68.47
2023-05-22T08:06:54.246Z,70.04
2023-05-22T08:09:22.146Z,70.50
2023-05-22T08:11:49.821Z,70.06
2023-05-22T08:14:19.143Z,69.50
2023-05-22T08:16:46.802Z,68.69
2023-05-22T08:19:14.801Z,69.14
2023-05-22T08:21:42.462Z,68.60
2023-05-22T08:24:10.475Z,67.97
2023-05-22T08:26:38.760Z,69.45
2023-05-22T08:29:06.448Z,69.72
2023-05-22T08:31:35.799Z,67.01
2023-05-22T08:34:04.679Z,66.50
2023-05-22T08:36:33.833Z,66.85
2023-05-22T08:39:01.916Z,67.46
2023-05-22T08:41:30.380Z,65.47
2023-05-22T08:43:58.294Z,66.07
2023-05-22T08:46:28.931Z,65.11
2023-05-22T08:48:58.864Z,66.27
2023-05-22T08:51:31.264Z,66.23
2023-05-22T08:54:00.436Z,66.48
2023-05-22T08:56:29.747Z,66.89
2023-05-22T08:58:59.194Z,68.09
2023-05-22T09:01:27.284Z,67.16
2023-05-22T09:03:55.443Z,66.98
2023-05-22T09:06:24.803Z,67.40
2023-05-22T09:08:53.296Z,66.96
2023-05-22T09:11:20.978Z,65.00
2023-05-22T09:13:49.884Z,64.99
2023-05-22T09:16:18.246Z,65.39
2023-05-22T09:18:46.605Z,65.90
2023-05-22T09:21:28.671Z,64.37
2023-05-22T09:24:02.059Z,64.58
2023-05-22T09:26:30.137Z,65.24
2023-05-22T09:29:00.757Z,62.21
2023-05-22T09:31:30.265Z,63.07
2023-05-22T09:33:58.335Z,62.05
2023-05-22T09:36:32.339Z,62.96
2023-05-22T09:39:03.970Z,63.19
2023-05-22T09:41:36.192Z,63.07
2023-05-22T09:44:08.316Z,62.89
2023-05-22T09:46:41.597Z,63.36
2023-05-22T09:49:09.529Z,61.66
2023-05-22T09:51:40.611Z,59.10
2023-05-22T09:54:12.068Z,58.88
2023-05-22T09:56:41.538Z,58.22
2023-05-22T09:59:10.335Z,58.78
2023-05-22T10:01:39.615Z,58.11
2023-05-22T10:04:09.739Z,57.93
2023-05-22T10:06:38.307Z,58.75
2023-05-22T10:09:11.548Z,59.23
2023-05-22T10:11:39.370Z,57.01
2023-05-22T10:14:07.749Z,57.38
2023-05-22T10:16:38.260Z,55.70
2023-05-22T10:19:07.012Z,56.03
2023-05-22T10:21:36.847Z,56.20
2023-05-22T10:24:06.611Z,55.84
2023-05-22T10:26:35.576Z,54.87
2023-05-22T10:29:13.499Z,55.91
2023-05-22T10:31:47.026Z,57.32
2023-05-22T10:34:30.027Z,57.05
2023-05-22T10:37:17.538Z,58.93
2023-05-22T10:40:01.732Z,53.97
2023-05-22T10:42:32.393Z,55.00
2023-05-22T10:45:01.900Z,54.78
2023-05-22T10:47:30.898Z,53.52
2023-05-22T10:50:08.527Z,53.41
2023-05-22T10:52:36.439Z,53.71
2023-05-22T10:55:07.599Z,53.51
2023-05-22T10:57:38.518Z,52.66
2023-05-22T11:00:11.567Z,53.98
2023-05-22T11:02:44.851Z,52.09
2023-05-22T11:05:39.670Z,52.57
2023-05-22T11:08:11.606Z,52.73
2023-05-22T11:10:55.900Z,52.86
2023-05-22T11:13:29.412Z,53.97
2023-05-22T11:15:58.133Z,52.80
2023-05-22T11:18:29.737Z,52.73
2023-05-22T11:21:00.678Z,52.03
2023-05-22T11:23:28.498Z,50.86
2023-05-22T11:25:56.112Z,51.47
2023-05-22T11:28:23.960Z,50.68
2023-05-22T11:30:53.248Z,50.96
2023-05-22T11:33:20.904Z,49.70
2023-05-22T11:35:48.796Z,51.38
2023-05-22T11:38:18.031Z,49.22
2023-05-22T11:40:45.689Z,49.76
2023-05-22T11:43:13.350Z,47.29
2023-05-22T11:45:41.007Z,48.91
2023-05-22T11:48:12.822Z,46.99
2023-05-22T11:50:44.410Z,44.41
2023-05-22T11:53:12.493Z,43.19
2023-05-22T11:55:40.143Z,43.61
2023-05-22T11:58:07.784Z,42.28
2023-05-22T12:00:35.342Z,41.08
2023-05-22T12:03:03.030Z,41.10
2023-05-22T12:05:33.929Z,41.97
2023-05-22T12:08:01.692Z,41.35
2023-05-22T12:10:29.349Z,42.00
2023-05-22T12:12:57.135Z,41.73
2023-05-22T12:15:25.429Z,41.89
2023-05-22T12:17:56.204Z,41.65
2023-05-22T12:20:24.048Z,42.03
2023-05-22T12:22:53.011Z,40.92
2023-05-22T12:25:20.993Z,41.83
2023-05-22T12:27:48.556Z,40.35
2023-05-22T12:30:16.985Z,42.84
2023-05-22T12:32:48.552Z,41.76
2023-05-22T12:35:17.012Z,41.20
2023-05-22T12:37:49.229Z,41.11
2023-05-22T12:40:18.571Z,41.29
2023-05-22T12:42:46.257Z,41.43
2023-05-22T12:45:14.226Z,40.91
2023-05-22T12:47:42.003Z,37.57
2023-05-22T12:50:10.515Z,36.37
2023-05-22T12:52:38.088Z,35.87
2023-05-22T12:55:06.524Z,35.95
2023-05-22T12:57:35.540Z,35.14
2023-05-22T13:00:03.167Z,35.98
2023-05-22T13:02:30.938Z,36.40
2023-05-22T13:04:59.034Z,36.57
2023-05-22T13:07:26.659Z,36.99
2023-05-22T13:09:54.292Z,36.76
2023-05-22T13:12:22.049Z,39.14
2023-05-22T13:14:50.998Z,40.83
2023-05-22T13:17:18.599Z,40.10
2023-05-22T13:19:46.228Z,40.32
2023-05-22T13:22:13.773Z,38.94
2023-05-22T13:24:41.368Z,39.26
2023-05-22T13:27:08.963Z,40.09
2023-05-22T13:29:36.594Z,40.76
2023-05-22T13:32:06.002Z,40.15
2023-05-22T13:34:33.763Z,40.63
2023-05-22T13:37:01.537Z,40.14
2023-05-22T13:39:29.205Z,40.63
2023-05-22T13:41:56.866Z,40.24
2023-05-22T13:44:25.821Z,40.18
2023-05-22T13:46:53.693Z,38.68
2023-05-22T13:49:22.626Z,39.17
2023-05-22T13:51:50.464Z,37.81
2023-05-22T13:54:18.030Z,34.55
2023-05-22T13:56:45.722Z,30.76
2023-05-22T13:59:13.328Z,29.62
2023-05-22T14:01:41.054Z,29.69
2023-05-22T14:04:08.687Z,29.12
2023-05-22T14:06:37.708Z,27.30
2023-05-22T14:09:07.213Z,25.82
2023-05-22T14:11:34.924Z,24.52
2023-05-22T14:14:02.659Z,23.99
2023-05-22T14:16:30.416Z,23.35
2023-05-22T14:19:00.154Z,21.65
2023-05-22T14:21:27.989Z,20.71
2023-05-22T14:23:56.963Z,20.64
2023-05-22T14:26:25.148Z,23.03
2023-05-22T14:28:53.965Z,24.58
2023-05-22T14:31:21.671Z,25.18
2023-05-22T14:33:49.277Z,24.25
2023-05-22T14:36:17.849Z,21.90
2023-05-22T14:38:46.530Z,20.49
2023-05-22T14:41:16.152Z,18.62
2023-05-22T14:43:43.781Z,17.33
2023-05-22T14:46:12.374Z,16.84
2023-05-22T14:48:40.089Z,16.35
2023-05-22T14:51:07.675Z,16.09
2023-05-22T14:53:35.257Z,18.03
2023-05-22T14:56:03.285Z,18.93
2023-05-22T14:58:32.550Z,20.37
2023-05-22T15:01:00.198Z,21.21
2023-05-22T15:03:27.782Z,20.01
2023-05-22T15:05:55.418Z,19.50
2023-05-22T15:08:23.084Z,18.42
2023-05-22T15:10:50.709Z,17.19
2023-05-22T15:13:18.364Z,17.48
2023-05-22T15:15:47.288Z,16.69
2023-05-22T15:18:14.952Z,15.89
2023-05-22T15:20:42.619Z,15.20
2023-05-22T15:23:10.208Z,14.89
2023-05-22T15:25:38.149Z,14.88
2023-05-22T15:28:07.237Z,15.45
2023-05-22T15:30:36.386Z,14.65
2023-05-22T15:33:05.893Z,14.12
2023-05-22T15:35:33.528Z,14.98
2023-05-22T15:38:03.002Z,17.70
2023-05-22T15:40:31.034Z,21.10
2023-05-22T15:43:01.754Z,21.88
2023-05-22T15:45:30.485Z,24.31
2023-05-22T15:47:58.439Z,26.78
2023-05-22T15:50:27.840Z,28.44
2023-05-22T15:52:55.459Z,30.78
2023-05-22T15:55:23.261Z,32.89
2023-05-22T15:57:50.892Z,33.76
2023-05-22T16:00:21.012Z,34.84
2023-05-22T16:02:49.104Z,35.74
2023-05-22T16:05:16.828Z,35.97
2023-05-22T16:07:45.865Z,37.11
2023-05-22T16:10:13.507Z,37.51
2023-05-22T16:12:41.380Z,37.90
2023-05-22T16:15:10.408Z,38.63
2023-05-22T16:17:39.424Z,38.90
2023-05-22T16:20:08.944Z,40.22
2023-05-22T16:22:48.077Z,40.30
2023-05-22T16:25:18.764Z,41.54
2023-05-22T16:27:46.349Z,41.91
2023-05-22T16:30:16.570Z,42.88
2023-05-22T16:32:45.546Z,44.12
2023-05-22T16:35:13.546Z,44.75
2023-05-22T16:37:41.321Z,45.50
2023-05-22T16:40:10.185Z,46.01
2023-05-22T16:42:39.133Z,46.99
2023-05-22T16:45:08.409Z,48.63
2023-05-22T16:47:36.103Z,49.76
2023-05-22T16:50:04.184Z,51.33
2023-05-22T16:52:31.815Z,52.06
2023-05-22T16:54:59.436Z,53.38
2023-05-22T16:57:28.321Z,53.07
2023-05-22T16:59:58.004Z,54.29
2023-05-22T17:02:26.003Z,54.47
2023-05-22T17:04:54.390Z,54.78
2023-05-22T17:07:22.158Z,58.80
2023-05-22T17:09:49.745Z,62.14
2023-05-22T17:12:17.498Z,65.84
2023-05-22T17:14:45.145Z,67.77
2023-05-22T17:17:14.017Z,66.05
2023-05-22T17:19:41.650Z,66.33
2023-05-22T17:22:09.580Z,65.28
2023-05-22T17:24:37.179Z,67.22
2023-05-22T17:27:06.605Z,69.23
2023-05-22T17:29:34.222Z,71.26
2023-05-22T17:32:01.902Z,72.06
2023-05-22T17:34:30.924Z,74.63
2023-05-22T17:36:59.260Z,74.89
2023-05-22T17:39:26.869Z,76.93
2023-05-22T17:41:54.761Z,77.86
2023-05-22T17:44:22.404Z,76.75
2023-05-22T17:46:51.016Z,75.48
2023-05-22T17:49:18.623Z,75.58
2023-05-22T17:51:47.550Z,75.48
2023-05-22T17:54:15.786Z,75.38
2023-05-22T17:56:44.204Z,75.13
2023-05-22T17:59:11.888Z,75.87
2023-05-22T18:01:39.651Z,76.39
2023-05-22T18:04:07.382Z,77.19
2023-05-22T18:06:35.080Z,77.62
2023-05-22T18:09:04.484Z,76.58
2023-05-22T18:11:32.107Z,77.10
2023-05-22T18:13:59.737Z,77.57
2023-05-22T18:16:27.387Z,77.75
2023-05-22T18:18:55.074Z,78.91
2023-05-22T18:21:22.969Z,80.17
2023-05-22T18:23:50.799Z,80.74
2023-05-22T18:26:19.735Z,81.60
2023-05-22T18:28:48.284Z,82.12
2023-05-22T18:31:15.949Z,82.85
2023-05-22T18:33:44.740Z,84.19
2023-05-22T18:36:13.106Z,84.30
2023-05-22T18:38:41.122Z,84.71
2023-05-22T18:41:08.910Z,84.48
2023-05-22T18:43:37.820Z,85.48
2023-05-22T18:46:05.519Z,85.30
2023-05-22T18:48:33.213Z,85.43
2023-05-22T18:51:00.915Z,85.74
2023-05-22T18:53:28.626Z,85.83
2023-05-22T18:55:56.256Z,86.12
2023-05-22T18:58:23.944Z,85.95
2023-05-22T19:00:55.196Z,85.87
2023-05-22T19:03:22.862Z,86.45
2023-05-22T19:05:50.496Z,86.63
2023-05-22T19:08:18.156Z,86.92
2023-05-22T19:10:45.784Z,87.17
2023-05-22T19:13:13.372Z,87.75
2023-05-22T19:15:41.069Z,88.25
2023-05-22T19:18:10.051Z,90.05
2023-05-22T19:20:37.995Z,89.33
2023-05-22T19:23:06.612Z,89.76
2023-05-22T19:25:34.272Z,89.45
2023-05-22T19:28:01.836Z,88.92
2023-05-22T19:30:29.636Z,89.35
2023-05-22T19:32:57.247Z,89.46
2023-05-22T19:35:26.192Z,90.66
2023-05-22T19:37:53.817Z,91.33
2023-05-22T19:40:21.411Z,92.69
2023-05-22T19:42:48.996Z,92.62
2023-05-22T19:45:17.410Z,92.77
2023-05-22T19:47:45.146Z,93.43
2023-05-22T19:50:12.885Z,93.98
2023-05-22T19:52:41.961Z,93.72
2023-05-22T19:55:10.633Z,94.83
2023-05-22T19:57:38.242Z,95.08
2023-05-22T20:00:10.835Z,95.30
2023-05-22T20:02:39.660Z,95.56
2023-05-22T20:05:09.396Z,95.30
2023-05-22T20:07:37.450Z,95.08
2023-05-22T20:10:07.937Z,95.09
2023-05-22T20:12:35.701Z,95.04
2023-05-22T20:15:03.986Z,95.27
2023-05-22T20:17:31.710Z,95.59
2023-05-22T20:19:59.531Z,95.74
2023-05-22T20:22:27.616Z,95.75
2023-05-22T20:24:55.787Z,96.30
2023-05-22T20:27:24.708Z,96.41
2023-05-22T20:29:52.484Z,96.06
2023-05-22T20:32:20.127Z,95.31
2023-05-22T20:34:47.774Z,94.95
2023-05-22T20:37:15.389Z,94.95
2023-05-22T20:39:43.018Z,93.94
2023-05-22T20:42:11.637Z,94.65
2023-05-22T20:44:41.246Z,95.07
2023-05-22T20:47:09.545Z,94.95
2023-05-22T20:49:38.215Z,95.12
2023-05-22T20:52:06.005Z,95.68
2023-05-22T20:54:34.952Z,95.76
2023-05-22T20:57:02.893Z,95.46
2023-05-22T20:59:30.893Z,96.21
2023-05-22T21:02:01.006Z,95.63
2023-05-22T21:04:28.730Z,95.86
2023-05-22T21:06:56.529Z,96.34
2023-05-22T21:09:24.143Z,96.17
2023-05-22T21:11:51.684Z,96.60
2023-05-22T21:14:19.248Z,96.20
2023-05-22T21:16:46.925Z,96.50
2023-05-22T21:19:16.239Z,96.58
2023-05-22T21:21:44.070Z,96.21
2023-05-22T21:24:11.727Z,96.73
2023-05-22T21:26:40.647Z,96.61
2023-05-22T21:29:08.384Z,96.33
2023-05-22T21:31:36.120Z,97.09
2023-05-22T21:34:03.845Z,97.30
2023-05-22T21:36:32.811Z,96.98
2023-05-22T21:39:00.863Z,97.19
2023-05-22T21:41:28.471Z,97.15
2023-05-22T21:43:56.208Z,97.39
2023-05-22T21:46:24.182Z,96.66
2023-05-22T21:48:53.536Z,97.31
2023-05-22T21:51:21.187Z,97.64
2023-05-22T21:53:50.097Z,97.63
2023-05-22T21:56:18.508Z,97.92
2023-05-22T21:58:46.139Z,97.81
2023-05-22T22:01:13.968Z,97.68
2023-05-22T22:03:41.696Z,97.63
2023-05-22T22:06:10.181Z,97.54
2023-05-22T22:08:37.730Z,96.53
2023-05-22T22:11:06.870Z,96.04
2023-05-22T22:13:34.453Z,96.19
2023-05-22T22:16:02.094Z,96.64
2023-05-22T22:18:33.261Z,96.79
2023-05-22T22:21:02.136Z,96.57
2023-05-22T22:23:30.121Z,96.79
2023-05-22T22:25:57.689Z,96.77
2023-05-22T22:28:26.623Z,96.55
2023-05-22T22:30:54.931Z,97.20
2023-05-22T22:33:23.302Z,96.60
2023-05-22T22:35:51.310Z,96.26
2023-05-22T22:38:19.068Z,96.29
2023-05-22T22:40:46.649Z,96.52
2023-05-22T22:43:14.221Z,96.21
2023-05-22T22:45:43.325Z,96.22
2023-05-22T22:48:11.012Z,96.33
2023-05-22T22:50:38.839Z,96.40
2023-05-22T22:53:06.605Z,96.07
2023-05-22T22:55:34.457Z,96.61
2023-05-22T22:58:02.370Z,96.67
2023-05-22T23:00:30.170Z,96.55
2023-05-22T23:02:59.154Z,96.25
2023-05-22T23:05:27.003Z,96.69
2023-05-22T23:07:54.807Z,96.93
2023-05-22T23:10:22.407Z,96.78
2023-05-22T23:12:50.165Z,97.06
2023-05-22T23:15:17.902Z,96.83
2023-05-22T23:17:45.489Z,97.29
2023-05-22T23:20:14.454Z,97.37
2023-05-22T23:22:42.116Z,96.65
2023-05-22T23:25:10.570Z,96.88
2023-05-22T23:27:39.161Z,97.45
2023-05-22T23:30:08.449Z,97.71
2023-05-22T23:32:36.096Z,97.52
2023-05-22T23:35:03.811Z,97.91
2023-05-22T23:37:32.848Z,95.62
2023-05-22T23:40:00.409Z,96.36
2023-05-22T23:42:27.994Z,96.39
2023-05-22T23:44:55.602Z,96.31
2023-05-22T23:47:23.287Z,96.30
2023-05-22T23:49:51.534Z,96.60
2023-05-22T23:52:19.267Z,96.36
2023-05-22T23:54:48.173Z,96.26
2023-05-22T23:57:15.810Z,96.27
2023-05-22T23:59:43.887Z,96.38
